createdAt,value
2018-02-04T00:00:40.443Z,0
2018-02-04T00:01:20.918Z,0
2018-02-04T00:02:01.414Z,0
2018-02-04T00:02:42.584Z,0
2018-02-04T00:03:23.234Z,0
2018-02-04T00:04:04.198Z,0
2018-02-04T00:04:45.085Z,0
2018-02-04T00:05:26.967Z,0
2018-02-04T00:06:07.823Z,0
2018-02-04T00:06:49.740Z,0
2018-02-04T00:07:31.210Z,0
2018-02-04T00:08:23.087Z,0
2018-02-04T00:09:03.649Z,0
2018-02-04T00:09:44.050Z,0
2018-02-04T00:10:24.659Z,0
2018-02-04T00:11:05.377Z,0
2018-02-04T00:11:46.446Z,0
2018-02-04T00:12:27.833Z,0
2018-02-04T00:13:10.296Z,0
2018-02-04T00:13:51.210Z,0
2018-02-04T00:14:32.622Z,0
2018-02-04T00:15:13.584Z,0
2018-02-04T00:15:56.856Z,0
2018-02-04T00:16:37.359Z,0
2018-02-04T00:17:18.324Z,0
2018-02-04T00:17:58.910Z,0
2018-02-04T00:18:40.539Z,0
2018-02-04T00:19:22.200Z,0
2018-02-04T00:22:16.731Z,0
2018-02-04T00:23:09.785Z,0
2018-02-04T00:24:02.314Z,0
2018-02-04T00:24:54.667Z,0
2018-02-04T00:25:48.992Z,0
2018-02-04T00:26:42.965Z,0
2018-02-04T00:27:36.777Z,0
2018-02-04T00:28:29.893Z,0
2018-02-04T00:29:22.100Z,0
2018-02-04T00:30:14.549Z,0
2018-02-04T00:31:07.502Z,0
2018-02-04T00:31:59.621Z,0
2018-02-04T00:32:52.333Z,0
2018-02-04T00:33:44.753Z,0
2018-02-04T00:34:38.825Z,0
2018-02-04T00:35:31.711Z,0
2018-02-04T00:36:31.534Z,0
2018-02-04T00:37:29.033Z,0
2018-02-04T00:38:21.142Z,0
2018-02-04T00:39:20.954Z,0
2018-02-04T00:40:14.405Z,0
2018-02-04T00:41:06.560Z,0
2018-02-04T00:41:59.403Z,0
2018-02-04T00:42:52.237Z,0
2018-02-04T00:43:44.263Z,0
2018-02-04T00:44:37.103Z,0
2018-02-04T00:45:29.416Z,0
2018-02-04T00:46:21.592Z,0
2018-02-04T00:47:14.038Z,0
2018-02-04T00:48:06.192Z,0
2018-02-04T00:48:58.398Z,0
2018-02-04T00:49:50.553Z,0
2018-02-04T00:50:43.530Z,0
2018-02-04T00:51:36.789Z,0
2018-02-04T00:52:29.436Z,0
2018-02-04T00:53:21.829Z,0
2018-02-04T00:54:14.797Z,0
2018-02-04T00:55:07.102Z,0
2018-02-04T00:55:59.370Z,0
2018-02-04T00:56:51.345Z,0
2018-02-04T00:57:43.479Z,0
2018-02-04T00:58:35.519Z,0
2018-02-04T00:59:28.253Z,0
2018-02-04T01:00:20.777Z,0
2018-02-04T01:01:13.327Z,0
2018-02-04T01:02:05.756Z,0
2018-02-04T01:02:58.719Z,0
2018-02-04T01:03:50.914Z,0
2018-02-04T01:04:43.318Z,0
2018-02-04T01:05:36.333Z,0
2018-02-04T01:06:29.690Z,0
2018-02-04T01:07:22.423Z,0
2018-02-04T01:08:14.737Z,0
2018-02-04T01:09:07.111Z,0
2018-02-04T01:09:59.751Z,0
2018-02-04T01:10:51.827Z,0
2018-02-04T01:11:45.293Z,0
2018-02-04T01:12:37.899Z,0
2018-02-04T01:15:40.482Z,0
2018-02-04T01:16:32.992Z,0
2018-02-04T01:17:25.349Z,0
2018-02-04T01:18:17.804Z,0
2018-02-04T01:19:10.920Z,0
2018-02-04T01:20:02.829Z,0
2018-02-04T01:20:55.296Z,0
2018-02-04T01:21:48.049Z,0
2018-02-04T01:22:41.270Z,0
2018-02-04T01:23:33.912Z,0
2018-02-04T01:24:28.681Z,0
2018-02-04T01:25:23.568Z,0
2018-02-04T01:26:15.812Z,0
2018-02-04T01:27:11.913Z,0
2018-02-04T01:28:04.398Z,0
2018-02-04T01:28:58.080Z,0
2018-02-04T01:29:50.127Z,0
2018-02-04T01:30:48.105Z,0
2018-02-04T01:31:40.839Z,0
2018-02-04T01:32:33.759Z,0
2018-02-04T01:33:26.439Z,0
2018-02-04T01:34:18.887Z,0
2018-02-04T01:35:12.182Z,0
2018-02-04T01:36:04.865Z,0
2018-02-04T01:36:59.162Z,0
2018-02-04T01:37:53.641Z,0
2018-02-04T01:38:46.515Z,0
2018-02-04T01:39:38.870Z,0
2018-02-04T01:40:34.673Z,0
2018-02-04T01:41:26.684Z,0
2018-02-04T01:42:19.292Z,0
2018-02-04T01:43:12.229Z,0
2018-02-04T01:44:08.179Z,0
2018-02-04T01:45:00.773Z,0
2018-02-04T01:45:54.980Z,0
2018-02-04T01:46:47.375Z,0
2018-02-04T01:47:39.739Z,0
2018-02-04T01:48:32.158Z,0
2018-02-04T01:49:25.338Z,0
2018-02-04T01:50:19.192Z,0
2018-02-04T01:51:12.723Z,0
2018-02-04T01:52:04.914Z,0
2018-02-04T01:52:57.210Z,0
2018-02-04T01:53:53.646Z,0
2018-02-04T01:54:46.331Z,0
2018-02-04T01:55:37.306Z,0
2018-02-04T02:00:04.408Z,0
2018-02-04T02:00:52.199Z,0
2018-02-04T02:03:36.530Z,0
2018-02-04T02:04:30.692Z,0
2018-02-04T02:05:23.946Z,0
2018-02-04T02:06:16.392Z,0
2018-02-04T02:07:08.551Z,0
2018-02-04T02:08:02.699Z,0
2018-02-04T02:08:55.109Z,0
2018-02-04T02:09:47.917Z,0
2018-02-04T02:10:41.708Z,0
2018-02-04T02:11:34.233Z,0
2018-02-04T02:12:26.322Z,0
2018-02-04T02:13:18.651Z,0
2018-02-04T02:14:10.658Z,0
2018-02-04T02:15:03.172Z,0
2018-02-04T02:15:55.542Z,0
2018-02-04T02:16:47.604Z,0
2018-02-04T02:17:40.666Z,0
2018-02-04T02:18:32.876Z,0
2018-02-04T02:19:25.209Z,0
2018-02-04T02:20:18.715Z,0
2018-02-04T02:21:10.692Z,0
2018-02-04T02:22:02.790Z,0
2018-02-04T02:22:55.031Z,0
2018-02-04T02:23:49.130Z,0
2018-02-04T02:24:46.426Z,0
2018-02-04T02:25:38.640Z,0
2018-02-04T02:26:30.830Z,0
2018-02-04T02:27:24.193Z,0
2018-02-04T02:28:34.610Z,0
2018-02-04T02:29:27.262Z,0
2018-02-04T02:30:19.591Z,0
2018-02-04T02:31:14.265Z,0
2018-02-04T02:32:09.090Z,0
2018-02-04T02:33:03.552Z,0
2018-02-04T02:38:08.574Z,0
2018-02-04T02:38:51.807Z,0
2018-02-04T02:39:33.077Z,0
2018-02-04T02:40:14.976Z,0
2018-02-04T02:40:56.539Z,0
2018-02-04T02:41:37.013Z,0
2018-02-04T02:42:17.482Z,0
2018-02-04T02:42:58.159Z,0
2018-02-04T02:43:38.405Z,0
2018-02-04T02:44:18.776Z,0
2018-02-04T02:44:59.638Z,0
2018-02-04T02:45:39.868Z,0
2018-02-04T02:46:24.167Z,0
2018-02-04T02:47:05.385Z,0
2018-02-04T02:47:45.759Z,0
2018-02-04T02:48:26.400Z,0
2018-02-04T02:49:06.835Z,0
2018-02-04T02:49:47.239Z,0
2018-02-04T02:50:28.968Z,0
2018-02-04T02:51:09.779Z,0
2018-02-04T02:51:51.581Z,0
2018-02-04T02:52:32.712Z,0
2018-02-04T02:53:14.384Z,0
2018-02-04T02:53:55.010Z,0
2018-02-04T02:54:35.717Z,0
2018-02-04T02:55:16.545Z,0
2018-02-04T02:55:57.245Z,0
2018-02-04T02:56:37.883Z,0
2018-02-04T02:57:18.440Z,0
2018-02-04T02:57:59.885Z,0
2018-02-04T02:58:41.099Z,0
2018-02-04T02:59:22.995Z,0
2018-02-04T03:00:03.666Z,0
2018-02-04T03:00:45.224Z,0
2018-02-04T03:01:25.897Z,0
2018-02-04T03:02:07.256Z,0
2018-02-04T03:02:48.179Z,0
2018-02-04T03:03:28.801Z,0
2018-02-04T03:04:09.476Z,0
2018-02-04T03:04:49.962Z,0
2018-02-04T03:05:30.764Z,0
2018-02-04T03:08:00.182Z,0
2018-02-04T03:08:53.131Z,0
2018-02-04T03:09:30.625Z,0
2018-02-04T03:10:12.919Z,0
2018-02-04T03:10:53.966Z,0
2018-02-04T03:11:35.220Z,0
2018-02-04T03:12:16.532Z,0
2018-02-04T03:12:56.976Z,0
2018-02-04T03:13:38.074Z,0
2018-02-04T03:14:18.560Z,0
2018-02-04T03:14:59.505Z,0
2018-02-04T03:15:41.537Z,0
2018-02-04T03:16:25.208Z,0
2018-02-04T03:17:04.665Z,0
2018-02-04T03:17:45.098Z,0
2018-02-04T03:18:26.811Z,0
2018-02-04T03:19:09.017Z,0
2018-02-04T03:19:49.135Z,0
2018-02-04T03:20:29.529Z,0
2018-02-04T03:21:10.071Z,0
2018-02-04T03:21:50.325Z,0
2018-02-04T03:22:31.032Z,0
2018-02-04T03:23:13.091Z,0
2018-02-04T03:23:53.485Z,0
2018-02-04T03:31:04.960Z,0
2018-02-04T03:31:54.440Z,0
2018-02-04T03:32:42.975Z,0
2018-02-04T03:33:34.774Z,0
2018-02-04T03:34:31.306Z,0
2018-02-04T03:35:19.391Z,0
2018-02-04T03:36:09.797Z,0
2018-02-04T03:37:00.820Z,0
2018-02-04T03:37:51.812Z,0
2018-02-04T03:38:41.390Z,0
2018-02-04T03:39:34.348Z,0
2018-02-04T03:40:19.436Z,0
2018-02-04T03:41:09.149Z,0
2018-02-04T03:41:50.092Z,0
2018-02-04T03:42:31.123Z,0
2018-02-04T03:43:12.497Z,0
2018-02-04T03:43:52.870Z,0
2018-02-04T03:44:34.945Z,0
2018-02-04T03:45:15.790Z,0
2018-02-04T03:45:56.768Z,0
2018-02-04T03:46:37.612Z,0
2018-02-04T03:47:18.386Z,0
2018-02-04T03:48:01.361Z,0
2018-02-04T03:48:41.430Z,0
2018-02-04T03:49:22.606Z,0
2018-02-04T03:50:03.412Z,0
2018-02-04T03:50:44.621Z,0
2018-02-04T03:51:30.093Z,0
2018-02-04T03:52:12.956Z,0
2018-02-04T03:52:53.861Z,0
2018-02-04T03:53:34.481Z,0
2018-02-04T03:56:13.434Z,0
2018-02-04T03:57:02.583Z,0
2018-02-04T03:57:52.213Z,0
2018-02-04T03:58:41.292Z,0
2018-02-04T03:59:32.608Z,0
2018-02-04T04:00:21.546Z,0
2018-02-04T04:01:12.503Z,0
2018-02-04T04:02:03.377Z,0
2018-02-04T04:45:58.017Z,0
2018-02-04T04:46:50.747Z,0
2018-02-04T04:47:44.108Z,0
2018-02-04T04:48:36.714Z,0
2018-02-04T04:49:29.364Z,0
2018-02-04T04:50:22.587Z,0
2018-02-04T04:51:15.021Z,0
2018-02-04T04:52:08.077Z,0
2018-02-04T04:52:59.765Z,0
2018-02-04T04:53:53.932Z,0
2018-02-04T04:54:47.306Z,0
2018-02-04T04:55:39.720Z,0
2018-02-04T04:56:32.544Z,0
2018-02-04T04:57:25.625Z,0
2018-02-04T04:58:17.783Z,0
2018-02-04T04:59:10.037Z,0
2018-02-04T05:00:02.780Z,0
2018-02-04T05:00:55.185Z,0
2018-02-04T05:01:47.511Z,0
2018-02-04T05:02:40.715Z,0
2018-02-04T05:03:33.024Z,0
2018-02-04T05:04:25.680Z,0
2018-02-04T05:05:18.181Z,0
2018-02-04T05:06:10.609Z,0
2018-02-04T05:07:03.417Z,0
2018-02-04T05:07:56.410Z,0
2018-02-04T05:08:49.125Z,0
2018-02-04T05:09:41.617Z,0
2018-02-04T05:10:48.648Z,0
2018-02-04T05:11:40.946Z,0
2018-02-04T05:12:34.605Z,0
2018-02-04T05:13:27.051Z,0
2018-02-04T05:14:19.126Z,0
2018-02-04T05:15:11.034Z,0
2018-02-04T05:16:05.393Z,0
2018-02-04T05:16:57.598Z,0
2018-02-04T05:17:50.058Z,0
2018-02-04T05:18:43.528Z,0
2018-02-04T05:19:36.901Z,0
2018-02-04T05:20:29.009Z,0
2018-02-04T05:21:21.348Z,0
2018-02-04T05:22:14.003Z,0
2018-02-04T05:23:06.692Z,0
2018-02-04T05:23:59.163Z,0
2018-02-04T05:24:51.283Z,0
2018-02-04T05:25:43.200Z,0
2018-02-04T05:26:37.771Z,0
2018-02-04T05:27:29.972Z,0
2018-02-04T05:28:23.570Z,0
2018-02-04T05:29:15.794Z,0
2018-02-04T05:30:09.144Z,0
2018-02-04T05:31:02.127Z,0
2018-02-04T05:31:54.579Z,0
2018-02-04T05:32:50.482Z,0
2018-02-04T05:33:44.578Z,0
2018-02-04T05:34:37.213Z,0
2018-02-04T05:35:29.638Z,0
2018-02-04T05:36:24.042Z,0
2018-02-04T05:37:19.547Z,0
2018-02-04T05:38:11.044Z,0
2018-02-04T05:39:03.926Z,0
2018-02-04T05:39:56.663Z,0
2018-02-04T05:40:49.354Z,0
2018-02-04T05:41:42.237Z,0
2018-02-04T05:42:34.531Z,0
2018-02-04T05:43:27.035Z,0
2018-02-04T05:44:18.908Z,0
2018-02-04T05:45:11.073Z,0
2018-02-04T05:46:03.510Z,0
2018-02-04T05:46:56.150Z,0
2018-02-04T05:47:48.795Z,0
2018-02-04T05:48:41.085Z,0
2018-02-04T05:49:33.393Z,0
2018-02-04T05:50:27.910Z,0
2018-02-04T05:51:18.887Z,0
2018-02-04T05:52:11.158Z,0
2018-02-04T05:53:04.459Z,0
2018-02-04T05:53:56.823Z,0
2018-02-04T05:54:49.070Z,0
2018-02-04T05:55:41.395Z,0
2018-02-04T05:56:34.568Z,0
2018-02-04T05:57:26.973Z,0
2018-02-04T05:58:19.532Z,0
2018-02-04T05:59:13.203Z,0
2018-02-04T06:00:06.923Z,0
2018-02-04T06:00:59.040Z,0
2018-02-04T06:01:51.781Z,0
2018-02-04T06:02:43.973Z,0
2018-02-04T06:03:37.448Z,0
2018-02-04T06:04:30.063Z,0
2018-02-04T06:05:22.480Z,0
2018-02-04T06:06:14.641Z,0
2018-02-04T06:07:08.634Z,0
2018-02-04T06:08:01.019Z,0
2018-02-04T06:08:55.486Z,0
2018-02-04T06:09:48.267Z,0
2018-02-04T06:10:40.499Z,0
2018-02-04T06:11:32.370Z,0
2018-02-04T06:12:25.557Z,0
2018-02-04T06:13:18.174Z,0
2018-02-04T06:14:10.640Z,0
2018-02-04T06:15:03.050Z,0
2018-02-04T06:15:55.375Z,0
2018-02-04T06:16:47.495Z,0
2018-02-04T06:17:40.064Z,0
2018-02-04T06:18:33.487Z,0
2018-02-04T06:19:27.844Z,0
2018-02-04T06:20:20.203Z,0
2018-02-04T06:21:12.168Z,0
2018-02-04T06:22:04.079Z,0
2018-02-04T06:22:57.123Z,0
2018-02-04T06:23:49.561Z,0
2018-02-04T06:24:41.871Z,0
2018-02-04T06:25:34.266Z,0
2018-02-04T06:26:27.376Z,0
2018-02-04T06:27:17.419Z,0
2018-02-04T06:27:58.234Z,0
2018-02-04T06:28:38.685Z,0
2018-02-04T06:29:19.000Z,0
2018-02-04T06:30:00.089Z,0
2018-02-04T06:30:42.305Z,0
2018-02-04T06:34:52.327Z,0
2018-02-04T06:35:44.379Z,0
2018-02-04T06:36:37.189Z,0
2018-02-04T06:37:31.371Z,0
2018-02-04T06:38:23.393Z,0
2018-02-04T06:39:15.812Z,0
2018-02-04T06:40:08.207Z,0
2018-02-04T06:41:00.294Z,0
2018-02-04T06:42:01.600Z,0
2018-02-04T06:42:54.180Z,0
2018-02-04T06:43:46.318Z,0
2018-02-04T06:44:38.680Z,0
2018-02-04T06:45:31.334Z,0
2018-02-04T06:46:23.428Z,0
2018-02-04T06:47:15.755Z,0
2018-02-04T06:48:07.732Z,0
2018-02-04T06:49:00.009Z,0
2018-02-04T06:49:54.644Z,0
2018-02-04T06:50:46.648Z,0
2018-02-04T06:51:39.085Z,0
2018-02-04T06:52:31.267Z,0
2018-02-04T06:55:05.524Z,0
2018-02-04T06:55:57.722Z,0
2018-02-04T06:56:50.238Z,0
2018-02-04T06:58:54.348Z,0
2018-02-04T06:59:53.716Z,0
2018-02-04T07:00:54.802Z,0
2018-02-04T07:56:10.235Z,0
2018-02-04T07:57:07.275Z,0
2018-02-04T07:58:01.423Z,0
2018-02-04T07:59:04.992Z,0
2018-02-04T08:00:05.270Z,0
2018-02-04T08:25:15.916Z,5
2018-02-04T09:10:14.878Z,40
2018-02-04T09:13:01.711Z,40
2018-02-04T09:13:54.462Z,40
2018-02-04T09:17:54.752Z,35
2018-02-04T09:18:45.988Z,50
2018-02-04T09:19:34.122Z,50
2018-02-04T09:20:25.213Z,50
2018-02-04T09:23:21.440Z,55
2018-02-04T09:29:41.436Z,50
2018-02-04T10:47:05.846Z,15
2018-02-04T10:47:55.348Z,15
2018-02-04T11:03:39.980Z,10
2018-02-04T11:04:29.926Z,10
2018-02-04T11:11:32.859Z,15
2018-02-04T11:17:24.243Z,15
2018-02-04T11:18:11.145Z,15
2018-02-04T11:18:58.347Z,15
2018-02-04T11:19:45.589Z,15
2018-02-04T11:20:34.959Z,15
2018-02-04T11:21:27.063Z,15
2018-02-04T11:24:56.197Z,20
2018-02-04T11:40:53.793Z,35
2018-02-04T11:41:42.181Z,35
2018-02-04T11:42:31.020Z,35
2018-02-04T11:43:22.837Z,35
2018-02-04T11:48:57.519Z,20
2018-02-04T11:49:49.254Z,20
2018-02-04T11:53:11.493Z,25
2018-02-04T11:56:01.353Z,25
2018-02-04T11:56:43.554Z,25
2018-02-04T11:57:34.235Z,20
2018-02-04T11:58:45.948Z,20
2018-02-04T11:59:39.734Z,15
2018-02-04T12:00:30.127Z,15
2018-02-04T12:01:18.820Z,15
2018-02-04T12:02:11.344Z,15
2018-02-04T12:03:00.134Z,15
2018-02-04T12:08:24.661Z,10
2018-02-04T12:09:14.562Z,10
2018-02-04T12:23:40.142Z,10
2018-02-04T12:28:32.122Z,10
2018-02-04T12:29:19.747Z,10
2018-02-04T12:30:08.338Z,10
2018-02-04T12:30:56.906Z,10
2018-02-04T12:31:49.142Z,10
2018-02-04T12:32:46.070Z,10
2018-02-04T12:35:23.240Z,10
2018-02-04T12:36:13.620Z,10
2018-02-04T12:47:37.022Z,20
2018-02-04T13:23:46.611Z,30
2018-02-04T14:24:28.329Z,15
2018-02-04T14:26:51.706Z,15
2018-02-04T14:27:44.338Z,15
2018-02-04T14:28:36.947Z,15
2018-02-04T14:29:29.109Z,15
2018-02-04T14:30:13.981Z,15
2018-02-04T14:30:55.567Z,15
2018-02-04T14:31:36.623Z,10
2018-02-04T14:34:31.844Z,10
2018-02-04T14:35:12.594Z,10
2018-02-04T14:35:53.240Z,10
2018-02-04T14:36:34.387Z,15
2018-02-04T14:37:14.717Z,15
2018-02-04T14:37:55.001Z,15
2018-02-04T14:38:38.965Z,15
2018-02-04T14:39:20.323Z,15
2018-02-04T14:40:01.065Z,15
2018-02-04T14:40:41.684Z,15
2018-02-04T14:41:22.207Z,15
2018-02-04T14:42:02.756Z,20
2018-02-04T14:42:43.166Z,20
2018-02-04T14:43:24.116Z,20
2018-02-04T14:44:04.895Z,20
2018-02-04T14:44:46.028Z,20
2018-02-04T14:45:26.498Z,20
2018-02-04T14:46:06.938Z,20
2018-02-04T14:46:49.697Z,20
2018-02-04T14:47:31.922Z,20
2018-02-04T14:48:12.764Z,20
2018-02-04T14:48:53.327Z,20
2018-02-04T14:49:36.019Z,20
2018-02-04T14:50:19.289Z,20
2018-02-04T14:51:05.884Z,20
2018-02-04T14:53:33.554Z,20
2018-02-04T14:54:25.573Z,20
2018-02-04T14:55:17.776Z,20
2018-02-04T14:56:10.651Z,20
2018-02-04T14:57:02.777Z,20
2018-02-04T14:58:02.312Z,20
2018-02-04T14:58:54.312Z,20
2018-02-04T14:59:46.436Z,20
2018-02-04T15:06:07.768Z,20
2018-02-04T15:11:47.544Z,15
2018-02-04T15:12:40.585Z,15
2018-02-04T15:13:32.679Z,15
2018-02-04T15:14:24.670Z,15
2018-02-04T15:15:16.989Z,15
2018-02-04T15:16:09.612Z,15
2018-02-04T15:17:02.387Z,15
2018-02-04T15:17:55.227Z,20
2018-02-04T15:18:54.234Z,20
2018-02-04T15:22:56.848Z,20
2018-02-04T15:23:46.574Z,20
2018-02-04T15:24:36.713Z,25
2018-02-04T15:25:24.948Z,25
2018-02-04T15:26:05.234Z,35
2018-02-04T15:26:46.051Z,30
2018-02-04T15:27:26.737Z,25
2018-02-04T15:28:09.293Z,20
2018-02-04T15:28:51.015Z,20
2018-02-04T15:29:32.401Z,20
2018-02-04T15:30:12.952Z,15
2018-02-04T15:30:56.060Z,15
2018-02-04T15:35:13.087Z,10
2018-02-04T15:36:07.179Z,10
2018-02-04T15:37:02.794Z,10
2018-02-04T15:37:55.544Z,10
2018-02-04T15:38:48.006Z,10
2018-02-04T15:42:43.880Z,10
2018-02-04T15:48:17.909Z,5
2018-02-04T15:50:39.111Z,5
2018-02-04T15:53:35.063Z,5
2018-02-04T15:57:34.247Z,0
2018-02-04T15:58:26.714Z,0
2018-02-04T15:59:19.537Z,0
2018-02-04T16:01:49.940Z,0
2018-02-04T16:02:33.393Z,0
2018-02-04T16:03:13.850Z,0
2018-02-04T16:03:54.945Z,0
2018-02-04T16:44:05.062Z,0
2018-02-04T16:45:03.234Z,0
2018-02-04T16:45:56.315Z,0
2018-02-04T16:46:48.840Z,0
2018-02-04T16:47:41.198Z,0
2018-02-04T16:48:33.238Z,0
2018-02-04T16:49:28.114Z,0
2018-02-04T16:50:34.346Z,0
2018-02-04T17:33:18.666Z,0
2018-02-04T17:34:11.845Z,0
2018-02-04T17:35:04.193Z,0
2018-02-04T17:35:56.800Z,0
2018-02-04T17:36:49.271Z,0
2018-02-04T17:37:41.562Z,0
2018-02-04T17:38:34.112Z,0
2018-02-04T17:39:26.827Z,0
2018-02-04T17:40:19.253Z,0
2018-02-04T17:42:59.757Z,0
2018-02-04T17:43:56.551Z,0
2018-02-04T17:44:48.964Z,0
2018-02-04T17:45:42.426Z,0
2018-02-04T17:46:34.894Z,0
2018-02-04T17:47:29.060Z,0
2018-02-04T17:48:21.080Z,0
2018-02-04T17:49:13.859Z,0
2018-02-04T17:50:06.296Z,0
2018-02-04T17:50:58.871Z,0
2018-02-04T17:51:51.127Z,0
2018-02-04T17:52:45.233Z,0
2018-02-04T17:53:38.524Z,0
2018-02-04T17:54:31.737Z,0
2018-02-04T17:55:23.948Z,0
2018-02-04T17:56:16.000Z,0
2018-02-04T17:57:08.779Z,0
2018-02-04T17:58:01.898Z,0
2018-02-04T17:58:57.181Z,0
2018-02-04T17:59:50.094Z,0
2018-02-04T18:00:44.140Z,0
2018-02-04T18:01:48.334Z,0
2018-02-04T18:02:43.116Z,0
2018-02-04T18:03:36.169Z,0
2018-02-04T18:29:31.205Z,0
2018-02-04T18:30:24.427Z,0
2018-02-04T18:31:19.487Z,0
2018-02-04T18:32:11.301Z,0
2018-02-04T18:45:22.424Z,0
2018-02-04T18:46:35.142Z,0
2018-02-04T18:51:44.128Z,0
2018-02-04T18:52:51.800Z,0
2018-02-04T18:59:20.920Z,0
2018-02-04T19:08:41.408Z,0
2018-02-04T19:11:01.868Z,0
2018-02-04T19:21:17.506Z,0
2018-02-04T19:22:06.740Z,0
2018-02-04T19:22:55.529Z,0
2018-02-04T19:23:45.282Z,0
2018-02-04T19:24:33.554Z,0
2018-02-04T19:25:24.952Z,0
2018-02-04T19:26:12.564Z,0
2018-02-04T19:27:00.942Z,0
2018-02-04T19:27:50.645Z,0
2018-02-04T19:28:38.191Z,0
2018-02-04T19:29:43.631Z,0
2018-02-04T19:33:09.380Z,0
2018-02-04T19:50:04.239Z,0
2018-02-04T19:50:52.391Z,0
2018-02-04T19:51:41.557Z,0
2018-02-04T19:52:29.759Z,0
2018-02-04T19:53:17.337Z,0
2018-02-04T19:54:10.894Z,0
2018-02-04T19:54:57.517Z,0
2018-02-04T19:55:48.071Z,0
2018-02-04T19:56:40.812Z,0
2018-02-04T19:57:28.720Z,0
2018-02-04T19:58:17.120Z,0
2018-02-04T20:00:57.828Z,0
2018-02-04T20:01:49.002Z,0
2018-02-04T20:02:40.757Z,0
2018-02-04T20:03:32.638Z,0
2018-02-04T20:20:21.876Z,0
2018-02-04T20:21:21.571Z,0
2018-02-04T20:40:29.841Z,0
2018-02-04T20:53:11.940Z,0
2018-02-04T20:54:05.157Z,0
2018-02-04T20:56:59.896Z,0
2018-02-04T20:57:53.148Z,0
2018-02-04T20:59:04.678Z,0
2018-02-04T21:04:36.159Z,0
2018-02-04T21:05:25.017Z,0
2018-02-04T21:06:13.269Z,0
2018-02-04T21:07:01.797Z,0
2018-02-04T21:07:51.944Z,0
2018-02-04T21:08:42.347Z,0
2018-02-04T21:09:32.854Z,0
2018-02-04T21:10:21.980Z,0
2018-02-04T21:11:10.354Z,0
2018-02-04T21:12:01.253Z,0
2018-02-04T21:16:43.018Z,0
2018-02-04T21:17:34.580Z,0
2018-02-04T21:18:28.738Z,0
2018-02-04T21:36:13.243Z,0
2018-02-04T21:42:02.617Z,0
2018-02-04T21:48:16.617Z,0
2018-02-04T21:49:13.118Z,0
2018-02-04T21:50:04.399Z,0
2018-02-04T22:00:08.545Z,0
2018-02-04T22:00:57.851Z,0
2018-02-04T22:01:48.501Z,0
2018-02-04T22:42:11.669Z,0
2018-02-04T22:43:03.649Z,0
2018-02-04T22:45:41.199Z,0
2018-02-04T22:46:22.629Z,0
2018-02-04T22:47:04.244Z,0
2018-02-04T22:47:46.644Z,0
2018-02-04T22:48:29.500Z,0
2018-02-04T22:49:10.919Z,0
2018-02-04T22:49:51.707Z,0
2018-02-04T22:50:31.930Z,0
2018-02-04T22:51:14.083Z,0
2018-02-04T22:51:55.656Z,0
2018-02-04T22:52:35.976Z,0
2018-02-04T22:53:16.938Z,0
2018-02-04T22:53:59.707Z,0
2018-02-04T22:54:43.397Z,0
2018-02-04T22:55:27.984Z,0
2018-02-04T22:56:09.646Z,0
2018-02-04T22:56:52.943Z,0
2018-02-04T22:57:34.241Z,0
2018-02-04T22:58:22.856Z,0
2018-02-04T22:59:02.117Z,0
2018-02-04T22:59:43.384Z,0
2018-02-04T23:00:24.744Z,0
2018-02-04T23:01:05.182Z,0
2018-02-04T23:01:49.230Z,0
2018-02-04T23:02:30.476Z,0
2018-02-04T23:03:12.564Z,0
2018-02-04T23:03:55.120Z,0
2018-02-04T23:04:38.636Z,0
2018-02-04T23:05:19.799Z,0
2018-02-04T23:06:02.105Z,0
2018-02-04T23:06:43.045Z,0
2018-02-04T23:07:23.553Z,0
2018-02-04T23:08:04.537Z,0
2018-02-04T23:08:45.638Z,0
2018-02-04T23:09:26.546Z,0
2018-02-04T23:10:06.555Z,0
2018-02-04T23:10:48.065Z,0
2018-02-04T23:11:29.286Z,0
2018-02-04T23:12:26.198Z,0
2018-02-04T23:49:20.005Z,0
2018-02-04T23:50:11.534Z,0
2018-02-04T23:52:53.402Z,0
2018-02-04T23:53:44.360Z,0
2018-02-04T23:54:34.570Z,0
2018-02-04T23:55:28.899Z,0
2018-02-04T23:56:19.133Z,0
2018-02-04T23:57:07.647Z,0
2018-02-04T23:57:58.173Z,0
2018-02-04T23:58:48.403Z,0
2018-02-04T23:59:52.999Z,0
